sensor_id;sensor_type;location;lat;lon;timestamp;P1;durP1;ratioP1;P2;durP2;ratioP2
14118;SDS011;7138;49.246;9.100;2024-02-26T00:00:12;4.05;;;1.75;;
14118;SDS011;7138;49.246;9.100;2024-02-26T00:02:39;3.88;;;1.88;;
14118;SDS011;7138;49.246;9.100;2024-02-26T00:05:05;4.40;;;1.80;;
14118;SDS011;7138;49.246;9.100;2024-02-26T00:07:32;2.88;;;1.70;;
14118;SDS011;7138;49.246;9.100;2024-02-26T00:09:58;3.33;;;1.75;;
14118;SDS011;7138;49.246;9.100;2024-02-26T00:12:25;3.70;;;1.80;;
14118;SDS011;7138;49.246;9.100;2024-02-26T00:14:51;5.47;;;2.05;;
14118;SDS011;7138;49.246;9.100;2024-02-26T00:17:18;3.30;;;1.65;;
14118;SDS011;7138;49.246;9.100;2024-02-26T00:19:44;4.05;;;1.67;;
14118;SDS011;7138;49.246;9.100;2024-02-26T00:22:10;3.13;;;1.50;;
14118;SDS011;7138;49.246;9.100;2024-02-26T00:24:36;4.22;;;1.70;;
14118;SDS011;7138;49.246;9.100;2024-02-26T00:27:02;3.55;;;1.60;;
14118;SDS011;7138;49.246;9.100;2024-02-26T00:29:29;3.63;;;1.55;;
14118;SDS011;7138;49.246;9.100;2024-02-26T00:31:55;3.83;;;1.73;;
14118;SDS011;7138;49.246;9.100;2024-02-26T00:34:21;4.45;;;1.67;;
14118;SDS011;7138;49.246;9.100;2024-02-26T00:36:47;2.92;;;1.55;;
14118;SDS011;7138;49.246;9.100;2024-02-26T00:39:12;5.85;;;1.88;;
14118;SDS011;7138;49.246;9.100;2024-02-26T00:41:38;3.25;;;1.60;;
14118;SDS011;7138;49.246;9.100;2024-02-26T00:44:05;4.00;;;1.90;;
14118;SDS011;7138;49.246;9.100;2024-02-26T00:46:32;4.05;;;2.00;;
14118;SDS011;7138;49.246;9.100;2024-02-26T00:48:58;4.30;;;2.00;;
14118;SDS011;7138;49.246;9.100;2024-02-26T00:51:25;5.32;;;1.90;;
14118;SDS011;7138;49.246;9.100;2024-02-26T00:53:51;4.32;;;1.90;;
14118;SDS011;7138;49.246;9.100;2024-02-26T00:56:16;3.70;;;1.90;;
14118;SDS011;7138;49.246;9.100;2024-02-26T00:58:42;3.55;;;1.80;;
14118;SDS011;7138;49.246;9.100;2024-02-26T01:01:08;3.45;;;1.77;;
14118;SDS011;7138;49.246;9.100;2024-02-26T01:03:35;3.92;;;1.48;;
14118;SDS011;7138;49.246;9.100;2024-02-26T01:06:01;3.55;;;1.80;;
14118;SDS011;7138;49.246;9.100;2024-02-26T01:08:28;3.50;;;1.73;;
14118;SDS011;7138;49.246;9.100;2024-02-26T01:10:53;3.65;;;1.67;;
14118;SDS011;7138;49.246;9.100;2024-02-26T01:13:19;3.45;;;1.70;;
14118;SDS011;7138;49.246;9.100;2024-02-26T01:15:45;3.78;;;1.55;;
14118;SDS011;7138;49.246;9.100;2024-02-26T01:18:11;3.67;;;1.70;;
14118;SDS011;7138;49.246;9.100;2024-02-26T01:20:38;3.83;;;1.70;;
14118;SDS011;7138;49.246;9.100;2024-02-26T01:23:04;3.40;;;1.40;;
14118;SDS011;7138;49.246;9.100;2024-02-26T01:25:30;2.92;;;1.63;;
14118;SDS011;7138;49.246;9.100;2024-02-26T01:27:56;4.15;;;1.60;;
14118;SDS011;7138;49.246;9.100;2024-02-26T01:30:21;3.20;;;1.70;;
14118;SDS011;7138;49.246;9.100;2024-02-26T01:32:47;3.80;;;1.88;;
14118;SDS011;7138;49.246;9.100;2024-02-26T01:35:13;3.35;;;1.80;;
14118;SDS011;7138;49.246;9.100;2024-02-26T01:37:41;3.10;;;1.70;;
14118;SDS011;7138;49.246;9.100;2024-02-26T01:40:08;3.25;;;1.67;;
14118;SDS011;7138;49.246;9.100;2024-02-26T01:42:36;4.57;;;1.77;;
14118;SDS011;7138;49.246;9.100;2024-02-26T01:45:04;3.45;;;1.60;;
14118;SDS011;7138;49.246;9.100;2024-02-26T01:47:32;3.63;;;1.60;;
14118;SDS011;7138;49.246;9.100;2024-02-26T01:49:58;3.72;;;1.90;;
14118;SDS011;7138;49.246;9.100;2024-02-26T01:52:24;3.25;;;1.55;;
14118;SDS011;7138;49.246;9.100;2024-02-26T01:54:51;3.38;;;1.85;;
14118;SDS011;7138;49.246;9.100;2024-02-26T01:57:17;5.72;;;2.03;;
14118;SDS011;7138;49.246;9.100;2024-02-26T01:59:43;3.67;;;1.80;;
14118;SDS011;7138;49.246;9.100;2024-02-26T02:02:09;4.03;;;1.90;;
14118;SDS011;7138;49.246;9.100;2024-02-26T02:04:37;4.00;;;2.05;;
14118;SDS011;7138;49.246;9.100;2024-02-26T02:07:04;3.85;;;1.90;;
14118;SDS011;7138;49.246;9.100;2024-02-26T02:09:30;3.40;;;1.75;;
14118;SDS011;7138;49.246;9.100;2024-02-26T02:11:58;3.83;;;1.88;;
14118;SDS011;7138;49.246;9.100;2024-02-26T02:14:24;3.67;;;1.90;;
14118;SDS011;7138;49.246;9.100;2024-02-26T02:16:51;3.58;;;1.92;;
14118;SDS011;7138;49.246;9.100;2024-02-26T02:19:16;3.75;;;1.88;;
14118;SDS011;7138;49.246;9.100;2024-02-26T02:21:43;3.88;;;1.67;;
14118;SDS011;7138;49.246;9.100;2024-02-26T02:24:09;4.35;;;2.00;;
14118;SDS011;7138;49.246;9.100;2024-02-26T02:26:35;3.47;;;1.90;;
14118;SDS011;7138;49.246;9.100;2024-02-26T02:29:01;4.50;;;2.08;;
14118;SDS011;7138;49.246;9.100;2024-02-26T02:31:27;3.58;;;1.67;;
14118;SDS011;7138;49.246;9.100;2024-02-26T02:33:54;3.78;;;1.60;;
14118;SDS011;7138;49.246;9.100;2024-02-26T02:36:20;3.33;;;1.83;;
14118;SDS011;7138;49.246;9.100;2024-02-26T02:38:49;3.65;;;1.70;;
14118;SDS011;7138;49.246;9.100;2024-02-26T02:41:16;3.38;;;1.75;;
14118;SDS011;7138;49.246;9.100;2024-02-26T02:43:43;4.43;;;1.85;;
14118;SDS011;7138;49.246;9.100;2024-02-26T02:46:09;3.45;;;1.92;;
14118;SDS011;7138;49.246;9.100;2024-02-26T02:48:36;4.55;;;1.88;;
14118;SDS011;7138;49.246;9.100;2024-02-26T02:51:02;4.85;;;1.90;;
14118;SDS011;7138;49.246;9.100;2024-02-26T02:53:29;3.88;;;1.50;;
14118;SDS011;7138;49.246;9.100;2024-02-26T02:55:56;3.83;;;1.90;;
14118;SDS011;7138;49.246;9.100;2024-02-26T02:58:22;3.17;;;1.48;;
14118;SDS011;7138;49.246;9.100;2024-02-26T03:00:47;3.90;;;1.80;;
14118;SDS011;7138;49.246;9.100;2024-02-26T03:03:13;4.47;;;2.10;;
14118;SDS011;7138;49.246;9.100;2024-02-26T03:05:39;3.65;;;2.00;;
14118;SDS011;7138;49.246;9.100;2024-02-26T03:08:05;4.20;;;2.10;;
14118;SDS011;7138;49.246;9.100;2024-02-26T03:10:31;6.03;;;2.10;;
14118;SDS011;7138;49.246;9.100;2024-02-26T03:12:58;5.13;;;1.92;;
14118;SDS011;7138;49.246;9.100;2024-02-26T03:15:24;3.97;;;1.90;;
14118;SDS011;7138;49.246;9.100;2024-02-26T03:17:50;3.60;;;1.98;;
14118;SDS011;7138;49.246;9.100;2024-02-26T03:20:16;4.97;;;2.40;;
14118;SDS011;7138;49.246;9.100;2024-02-26T03:22:44;5.60;;;3.17;;
14118;SDS011;7138;49.246;9.100;2024-02-26T03:25:10;5.45;;;3.30;;
14118;SDS011;7138;49.246;9.100;2024-02-26T03:27:36;3.63;;;2.00;;
14118;SDS011;7138;49.246;9.100;2024-02-26T03:30:04;3.95;;;1.92;;
14118;SDS011;7138;49.246;9.100;2024-02-26T03:32:31;4.13;;;2.10;;
14118;SDS011;7138;49.246;9.100;2024-02-26T03:34:57;4.68;;;2.15;;
14118;SDS011;7138;49.246;9.100;2024-02-26T03:37:23;4.78;;;2.33;;
14118;SDS011;7138;49.246;9.100;2024-02-26T03:39:48;3.90;;;2.15;;
14118;SDS011;7138;49.246;9.100;2024-02-26T03:42:14;3.67;;;2.03;;
14118;SDS011;7138;49.246;9.100;2024-02-26T03:44:41;5.40;;;2.42;;
14118;SDS011;7138;49.246;9.100;2024-02-26T03:47:09;5.28;;;2.35;;
14118;SDS011;7138;49.246;9.100;2024-02-26T03:49:35;4.80;;;2.25;;
14118;SDS011;7138;49.246;9.100;2024-02-26T03:52:00;3.42;;;1.95;;
14118;SDS011;7138;49.246;9.100;2024-02-26T03:54:26;4.30;;;2.30;;
14118;SDS011;7138;49.246;9.100;2024-02-26T03:56:52;4.13;;;2.22;;
14118;SDS011;7138;49.246;9.100;2024-02-26T03:59:18;6.30;;;2.40;;
14118;SDS011;7138;49.246;9.100;2024-02-26T04:01:45;4.55;;;2.30;;
14118;SDS011;7138;49.246;9.100;2024-02-26T04:04:13;5.20;;;2.35;;
14118;SDS011;7138;49.246;9.100;2024-02-26T04:06:39;4.22;;;2.17;;
14118;SDS011;7138;49.246;9.100;2024-02-26T04:09:09;4.68;;;2.55;;
14118;SDS011;7138;49.246;9.100;2024-02-26T04:11:35;6.07;;;2.58;;
14118;SDS011;7138;49.246;9.100;2024-02-26T04:14:01;3.92;;;2.38;;
14118;SDS011;7138;49.246;9.100;2024-02-26T04:16:28;5.43;;;2.63;;
14118;SDS011;7138;49.246;9.100;2024-02-26T04:18:53;3.90;;;2.22;;
14118;SDS011;7138;49.246;9.100;2024-02-26T04:21:21;4.82;;;2.67;;
14118;SDS011;7138;49.246;9.100;2024-02-26T04:23:46;3.88;;;2.38;;
14118;SDS011;7138;49.246;9.100;2024-02-26T04:26:14;5.22;;;2.95;;
14118;SDS011;7138;49.246;9.100;2024-02-26T04:28:40;6.10;;;2.92;;
14118;SDS011;7138;49.246;9.100;2024-02-26T04:31:06;5.03;;;2.70;;
14118;SDS011;7138;49.246;9.100;2024-02-26T04:33:33;4.75;;;2.50;;
14118;SDS011;7138;49.246;9.100;2024-02-26T04:36:00;3.95;;;2.72;;
14118;SDS011;7138;49.246;9.100;2024-02-26T04:38:27;4.63;;;2.45;;
14118;SDS011;7138;49.246;9.100;2024-02-26T04:40:52;4.15;;;2.40;;
14118;SDS011;7138;49.246;9.100;2024-02-26T04:43:18;4.82;;;2.40;;
14118;SDS011;7138;49.246;9.100;2024-02-26T04:45:44;3.60;;;2.20;;
14118;SDS011;7138;49.246;9.100;2024-02-26T04:48:10;5.07;;;2.38;;
14118;SDS011;7138;49.246;9.100;2024-02-26T04:50:36;4.88;;;2.40;;
14118;SDS011;7138;49.246;9.100;2024-02-26T04:53:02;4.53;;;2.35;;
14118;SDS011;7138;49.246;9.100;2024-02-26T04:55:29;3.95;;;2.35;;
14118;SDS011;7138;49.246;9.100;2024-02-26T04:57:55;4.05;;;2.50;;
14118;SDS011;7138;49.246;9.100;2024-02-26T05:00:21;5.10;;;2.88;;
14118;SDS011;7138;49.246;9.100;2024-02-26T05:02:47;4.75;;;2.50;;
14118;SDS011;7138;49.246;9.100;2024-02-26T05:05:13;4.13;;;2.40;;
14118;SDS011;7138;49.246;9.100;2024-02-26T05:07:39;6.28;;;2.88;;
14118;SDS011;7138;49.246;9.100;2024-02-26T05:10:06;4.47;;;2.78;;
14118;SDS011;7138;49.246;9.100;2024-02-26T05:12:34;5.13;;;2.90;;
14118;SDS011;7138;49.246;9.100;2024-02-26T05:15:01;4.25;;;2.70;;
14118;SDS011;7138;49.246;9.100;2024-02-26T05:17:27;5.18;;;2.38;;
14118;SDS011;7138;49.246;9.100;2024-02-26T05:19:53;5.90;;;2.95;;
14118;SDS011;7138;49.246;9.100;2024-02-26T05:22:19;4.82;;;2.72;;
14118;SDS011;7138;49.246;9.100;2024-02-26T05:24:44;6.68;;;3.30;;
14118;SDS011;7138;49.246;9.100;2024-02-26T05:27:10;4.80;;;3.15;;
14118;SDS011;7138;49.246;9.100;2024-02-26T05:29:38;5.80;;;3.30;;
14118;SDS011;7138;49.246;9.100;2024-02-26T05:32:05;5.25;;;3.28;;
14118;SDS011;7138;49.246;9.100;2024-02-26T05:34:31;6.10;;;3.40;;
14118;SDS011;7138;49.246;9.100;2024-02-26T05:36:58;5.93;;;3.08;;
14118;SDS011;7138;49.246;9.100;2024-02-26T05:39:24;6.22;;;3.05;;
14118;SDS011;7138;49.246;9.100;2024-02-26T05:41:50;6.90;;;3.17;;
14118;SDS011;7138;49.246;9.100;2024-02-26T05:44:15;5.15;;;3.35;;
14118;SDS011;7138;49.246;9.100;2024-02-26T05:46:43;6.95;;;3.60;;
14118;SDS011;7138;49.246;9.100;2024-02-26T05:49:08;6.28;;;3.08;;
14118;SDS011;7138;49.246;9.100;2024-02-26T05:51:34;5.32;;;3.13;;
14118;SDS011;7138;49.246;9.100;2024-02-26T05:54:00;5.07;;;2.88;;
14118;SDS011;7138;49.246;9.100;2024-02-26T05:56:26;4.57;;;2.67;;
14118;SDS011;7138;49.246;9.100;2024-02-26T05:58:52;4.18;;;2.42;;
14118;SDS011;7138;49.246;9.100;2024-02-26T06:01:19;5.50;;;3.17;;
14118;SDS011;7138;49.246;9.100;2024-02-26T06:03:46;5.25;;;2.60;;
14118;SDS011;7138;49.246;9.100;2024-02-26T06:06:12;5.18;;;2.88;;
14118;SDS011;7138;49.246;9.100;2024-02-26T06:08:40;5.43;;;2.63;;
14118;SDS011;7138;49.246;9.100;2024-02-26T06:11:06;5.57;;;2.63;;
14118;SDS011;7138;49.246;9.100;2024-02-26T06:13:32;4.75;;;2.40;;
14118;SDS011;7138;49.246;9.100;2024-02-26T06:15:58;4.97;;;2.47;;
14118;SDS011;7138;49.246;9.100;2024-02-26T06:18:23;4.60;;;2.40;;
14118;SDS011;7138;49.246;9.100;2024-02-26T06:20:50;4.53;;;2.40;;
14118;SDS011;7138;49.246;9.100;2024-02-26T06:23:16;4.80;;;2.42;;
14118;SDS011;7138;49.246;9.100;2024-02-26T06:25:42;4.22;;;2.20;;
14118;SDS011;7138;49.246;9.100;2024-02-26T06:28:08;3.95;;;2.10;;
14118;SDS011;7138;49.246;9.100;2024-02-26T06:30:34;4.05;;;2.30;;
14118;SDS011;7138;49.246;9.100;2024-02-26T06:33:01;4.85;;;2.42;;
14118;SDS011;7138;49.246;9.100;2024-02-26T06:35:27;3.78;;;2.10;;
14118;SDS011;7138;49.246;9.100;2024-02-26T06:37:54;4.03;;;2.42;;
14118;SDS011;7138;49.246;9.100;2024-02-26T06:40:20;4.25;;;2.30;;
14118;SDS011;7138;49.246;9.100;2024-02-26T06:42:45;4.30;;;2.58;;
14118;SDS011;7138;49.246;9.100;2024-02-26T06:45:12;4.93;;;2.70;;
14118;SDS011;7138;49.246;9.100;2024-02-26T06:47:38;6.30;;;2.80;;
14118;SDS011;7138;49.246;9.100;2024-02-26T06:50:03;4.22;;;2.65;;
14118;SDS011;7138;49.246;9.100;2024-02-26T06:52:30;5.05;;;3.00;;
14118;SDS011;7138;49.246;9.100;2024-02-26T06:54:57;3.70;;;2.75;;
14118;SDS011;7138;49.246;9.100;2024-02-26T06:57:23;5.38;;;2.75;;
14118;SDS011;7138;49.246;9.100;2024-02-26T06:59:49;5.45;;;2.70;;
14118;SDS011;7138;49.246;9.100;2024-02-26T07:02:15;7.15;;;2.97;;
14118;SDS011;7138;49.246;9.100;2024-02-26T07:04:44;4.85;;;2.70;;
14118;SDS011;7138;49.246;9.100;2024-02-26T07:07:10;5.03;;;3.08;;
14118;SDS011;7138;49.246;9.100;2024-02-26T07:09:36;5.18;;;2.90;;
14118;SDS011;7138;49.246;9.100;2024-02-26T07:12:03;4.95;;;3.08;;
14118;SDS011;7138;49.246;9.100;2024-02-26T07:14:29;4.50;;;2.80;;
14118;SDS011;7138;49.246;9.100;2024-02-26T07:16:55;5.32;;;2.60;;
14118;SDS011;7138;49.246;9.100;2024-02-26T07:19:21;6.05;;;2.97;;
14118;SDS011;7138;49.246;9.100;2024-02-26T07:21:47;4.65;;;2.95;;
14118;SDS011;7138;49.246;9.100;2024-02-26T07:24:13;4.95;;;2.88;;
14118;SDS011;7138;49.246;9.100;2024-02-26T07:26:39;5.10;;;2.70;;
14118;SDS011;7138;49.246;9.100;2024-02-26T07:29:06;3.60;;;2.25;;
14118;SDS011;7138;49.246;9.100;2024-02-26T07:31:32;4.75;;;2.80;;
14118;SDS011;7138;49.246;9.100;2024-02-26T07:33:58;5.25;;;2.80;;
14118;SDS011;7138;49.246;9.100;2024-02-26T07:36:24;4.88;;;2.90;;
14118;SDS011;7138;49.246;9.100;2024-02-26T07:38:51;5.43;;;2.72;;
14118;SDS011;7138;49.246;9.100;2024-02-26T07:41:19;5.22;;;2.90;;
14118;SDS011;7138;49.246;9.100;2024-02-26T07:43:45;4.43;;;2.90;;
14118;SDS011;7138;49.246;9.100;2024-02-26T07:46:12;4.63;;;2.90;;
14118;SDS011;7138;49.246;9.100;2024-02-26T07:48:38;4.50;;;3.10;;
14118;SDS011;7138;49.246;9.100;2024-02-26T07:51:04;5.18;;;3.20;;
14118;SDS011;7138;49.246;9.100;2024-02-26T07:53:30;4.63;;;3.10;;
14118;SDS011;7138;49.246;9.100;2024-02-26T07:55:56;4.68;;;3.10;;
14118;SDS011;7138;49.246;9.100;2024-02-26T07:58:23;5.13;;;3.03;;
14118;SDS011;7138;49.246;9.100;2024-02-26T08:00:49;5.10;;;2.88;;
14118;SDS011;7138;49.246;9.100;2024-02-26T08:03:16;5.68;;;3.22;;
14118;SDS011;7138;49.246;9.100;2024-02-26T08:05:42;6.22;;;3.60;;
14118;SDS011;7138;49.246;9.100;2024-02-26T08:08:08;5.00;;;3.22;;
14118;SDS011;7138;49.246;9.100;2024-02-26T08:10:34;6.53;;;3.40;;
14118;SDS011;7138;49.246;9.100;2024-02-26T08:13:00;4.70;;;3.30;;
14118;SDS011;7138;49.246;9.100;2024-02-26T08:17:56;4.95;;;2.88;;
14118;SDS011;7138;49.246;9.100;2024-02-26T08:20:23;5.18;;;3.50;;
14118;SDS011;7138;49.246;9.100;2024-02-26T08:22:49;6.22;;;3.40;;
14118;SDS011;7138;49.246;9.100;2024-02-26T08:25:14;5.22;;;3.28;;
14118;SDS011;7138;49.246;9.100;2024-02-26T08:27:41;6.65;;;3.78;;
14118;SDS011;7138;49.246;9.100;2024-02-26T08:30:07;6.97;;;3.63;;
14118;SDS011;7138;49.246;9.100;2024-02-26T08:32:34;6.18;;;3.67;;
14118;SDS011;7138;49.246;9.100;2024-02-26T08:35:00;9.52;;;4.13;;
14118;SDS011;7138;49.246;9.100;2024-02-26T08:37:27;8.05;;;4.18;;
14118;SDS011;7138;49.246;9.100;2024-02-26T08:39:53;6.70;;;3.67;;
14118;SDS011;7138;49.246;9.100;2024-02-26T08:42:19;7.13;;;4.18;;
14118;SDS011;7138;49.246;9.100;2024-02-26T08:44:44;6.80;;;3.70;;
14118;SDS011;7138;49.246;9.100;2024-02-26T08:47:10;5.97;;;3.53;;
14118;SDS011;7138;49.246;9.100;2024-02-26T08:49:36;6.95;;;4.10;;
14118;SDS011;7138;49.246;9.100;2024-02-26T08:52:02;6.20;;;3.70;;
14118;SDS011;7138;49.246;9.100;2024-02-26T08:54:32;6.00;;;3.90;;
14118;SDS011;7138;49.246;9.100;2024-02-26T08:56:57;6.82;;;3.83;;
14118;SDS011;7138;49.246;9.100;2024-02-26T08:59:24;6.32;;;4.00;;
14118;SDS011;7138;49.246;9.100;2024-02-26T09:01:49;7.93;;;3.90;;
14118;SDS011;7138;49.246;9.100;2024-02-26T09:04:15;8.15;;;4.00;;
14118;SDS011;7138;49.246;9.100;2024-02-26T09:06:41;6.78;;;3.88;;
14118;SDS011;7138;49.246;9.100;2024-02-26T09:09:07;5.93;;;4.07;;
14118;SDS011;7138;49.246;9.100;2024-02-26T09:11:34;5.30;;;3.53;;
14118;SDS011;7138;49.246;9.100;2024-02-26T09:13:59;6.13;;;4.20;;
14118;SDS011;7138;49.246;9.100;2024-02-26T09:16:25;6.45;;;3.70;;
14118;SDS011;7138;49.246;9.100;2024-02-26T09:18:51;6.72;;;3.88;;
14118;SDS011;7138;49.246;9.100;2024-02-26T09:21:17;6.78;;;3.80;;
14118;SDS011;7138;49.246;9.100;2024-02-26T09:23:48;6.47;;;4.10;;
14118;SDS011;7138;49.246;9.100;2024-02-26T09:26:14;5.70;;;3.90;;
14118;SDS011;7138;49.246;9.100;2024-02-26T09:28:42;5.85;;;3.70;;
14118;SDS011;7138;49.246;9.100;2024-02-26T09:31:08;5.68;;;3.92;;
14118;SDS011;7138;49.246;9.100;2024-02-26T09:33:34;5.93;;;3.85;;
14118;SDS011;7138;49.246;9.100;2024-02-26T09:36:00;6.38;;;3.92;;
14118;SDS011;7138;49.246;9.100;2024-02-26T09:38:26;6.15;;;3.70;;
14118;SDS011;7138;49.246;9.100;2024-02-26T09:40:52;6.28;;;4.05;;
14118;SDS011;7138;49.246;9.100;2024-02-26T09:43:21;6.28;;;3.95;;
14118;SDS011;7138;49.246;9.100;2024-02-26T09:45:52;6.55;;;3.72;;
14118;SDS011;7138;49.246;9.100;2024-02-26T09:48:19;7.45;;;3.85;;
14118;SDS011;7138;49.246;9.100;2024-02-26T09:50:48;6.78;;;3.78;;
14118;SDS011;7138;49.246;9.100;2024-02-26T09:53:14;5.68;;;4.00;;
14118;SDS011;7138;49.246;9.100;2024-02-26T09:55:41;5.65;;;3.53;;
14118;SDS011;7138;49.246;9.100;2024-02-26T09:58:08;6.85;;;3.80;;
14118;SDS011;7138;49.246;9.100;2024-02-26T10:00:36;5.80;;;3.58;;
14118;SDS011;7138;49.246;9.100;2024-02-26T10:03:06;7.43;;;3.67;;
14118;SDS011;7138;49.246;9.100;2024-02-26T10:05:38;5.13;;;3.58;;
14118;SDS011;7138;49.246;9.100;2024-02-26T10:08:06;5.53;;;3.47;;
14118;SDS011;7138;49.246;9.100;2024-02-26T10:13:03;5.88;;;3.70;;
14118;SDS011;7138;49.246;9.100;2024-02-26T10:15:35;7.00;;;3.95;;
14118;SDS011;7138;49.246;9.100;2024-02-26T10:18:03;6.40;;;3.60;;
14118;SDS011;7138;49.246;9.100;2024-02-26T10:20:31;5.60;;;3.88;;
14118;SDS011;7138;49.246;9.100;2024-02-26T10:22:57;5.40;;;3.22;;
14118;SDS011;7138;49.246;9.100;2024-02-26T10:25:23;6.43;;;3.53;;
14118;SDS011;7138;49.246;9.100;2024-02-26T10:27:49;5.63;;;3.53;;
14118;SDS011;7138;49.246;9.100;2024-02-26T10:30:18;5.30;;;3.25;;
14118;SDS011;7138;49.246;9.100;2024-02-26T10:32:46;5.05;;;3.35;;
14118;SDS011;7138;49.246;9.100;2024-02-26T10:35:15;5.40;;;3.28;;
14118;SDS011;7138;49.246;9.100;2024-02-26T10:37:43;6.37;;;4.10;;
14118;SDS011;7138;49.246;9.100;2024-02-26T10:40:10;6.30;;;3.80;;
14118;SDS011;7138;49.246;9.100;2024-02-26T10:42:36;5.22;;;3.63;;
14118;SDS011;7138;49.246;9.100;2024-02-26T10:45:03;7.07;;;3.97;;
14118;SDS011;7138;49.246;9.100;2024-02-26T10:47:30;5.28;;;3.40;;
14118;SDS011;7138;49.246;9.100;2024-02-26T10:49:58;5.15;;;3.03;;
14118;SDS011;7138;49.246;9.100;2024-02-26T10:52:26;7.28;;;3.47;;
14118;SDS011;7138;49.246;9.100;2024-02-26T10:54:56;5.43;;;3.53;;
14118;SDS011;7138;49.246;9.100;2024-02-26T10:57:27;5.50;;;2.97;;
14118;SDS011;7138;49.246;9.100;2024-02-26T10:59:57;5.32;;;2.90;;
14118;SDS011;7138;49.246;9.100;2024-02-26T11:02:26;5.05;;;2.92;;
14118;SDS011;7138;49.246;9.100;2024-02-26T11:04:52;4.45;;;2.60;;
14118;SDS011;7138;49.246;9.100;2024-02-26T11:07:20;5.05;;;2.97;;
14118;SDS011;7138;49.246;9.100;2024-02-26T11:09:47;5.88;;;3.10;;
14118;SDS011;7138;49.246;9.100;2024-02-26T11:12:17;5.45;;;3.15;;
14118;SDS011;7138;49.246;9.100;2024-02-26T11:14:46;4.40;;;3.03;;
14118;SDS011;7138;49.246;9.100;2024-02-26T11:17:14;4.93;;;2.88;;
14118;SDS011;7138;49.246;9.100;2024-02-26T11:19:41;4.70;;;2.78;;
14118;SDS011;7138;49.246;9.100;2024-02-26T11:22:12;5.20;;;2.72;;
14118;SDS011;7138;49.246;9.100;2024-02-26T11:24:38;4.50;;;2.53;;
14118;SDS011;7138;49.246;9.100;2024-02-26T11:27:09;5.33;;;3.10;;
14118;SDS011;7138;49.246;9.100;2024-02-26T11:29:37;4.87;;;3.00;;
14118;SDS011;7138;49.246;9.100;2024-02-26T11:32:10;4.65;;;2.60;;
14118;SDS011;7138;49.246;9.100;2024-02-26T11:34:36;4.13;;;2.40;;
14118;SDS011;7138;49.246;9.100;2024-02-26T11:37:10;4.15;;;2.58;;
14118;SDS011;7138;49.246;9.100;2024-02-26T11:39:36;5.00;;;2.38;;
14118;SDS011;7138;49.246;9.100;2024-02-26T11:42:05;4.40;;;2.40;;
14118;SDS011;7138;49.246;9.100;2024-02-26T11:44:34;3.97;;;2.20;;
14118;SDS011;7138;49.246;9.100;2024-02-26T11:47:09;3.38;;;1.90;;
14118;SDS011;7138;49.246;9.100;2024-02-26T11:49:36;3.58;;;2.10;;
14118;SDS011;7138;49.246;9.100;2024-02-26T11:52:04;3.75;;;2.03;;
14118;SDS011;7138;49.246;9.100;2024-02-26T11:54:39;7.35;;;4.60;;
14118;SDS011;7138;49.246;9.100;2024-02-26T11:57:25;3.95;;;2.50;;
14118;SDS011;7138;49.246;9.100;2024-02-26T12:00:03;3.67;;;1.80;;
14118;SDS011;7138;49.246;9.100;2024-02-26T12:02:39;3.85;;;1.90;;
14118;SDS011;7138;49.246;9.100;2024-02-26T12:05:09;3.20;;;1.58;;
14118;SDS011;7138;49.246;9.100;2024-02-26T12:07:39;3.55;;;1.80;;
14118;SDS011;7138;49.246;9.100;2024-02-26T12:10:14;4.00;;;1.90;;
14118;SDS011;7138;49.246;9.100;2024-02-26T12:12:45;3.72;;;1.80;;
14118;SDS011;7138;49.246;9.100;2024-02-26T12:15:13;3.25;;;1.60;;
14118;SDS011;7138;49.246;9.100;2024-02-26T12:17:40;4.78;;;1.98;;
14118;SDS011;7138;49.246;9.100;2024-02-26T12:20:09;3.83;;;1.60;;
14118;SDS011;7138;49.246;9.100;2024-02-26T12:22:38;5.30;;;2.00;;
14118;SDS011;7138;49.246;9.100;2024-02-26T12:25:06;3.53;;;1.85;;
14118;SDS011;7138;49.246;9.100;2024-02-26T12:27:34;4.00;;;2.17;;
14118;SDS011;7138;49.246;9.100;2024-02-26T12:30:00;3.53;;;1.80;;
14118;SDS011;7138;49.246;9.100;2024-02-26T12:32:27;4.20;;;1.80;;
14118;SDS011;7138;49.246;9.100;2024-02-26T12:34:53;5.25;;;2.10;;
14118;SDS011;7138;49.246;9.100;2024-02-26T12:37:19;3.38;;;1.70;;
14118;SDS011;7138;49.246;9.100;2024-02-26T12:39:45;3.00;;;1.50;;
14118;SDS011;7138;49.246;9.100;2024-02-26T12:42:11;3.13;;;1.40;;
14118;SDS011;7138;49.246;9.100;2024-02-26T12:44:39;3.13;;;1.40;;
14118;SDS011;7138;49.246;9.100;2024-02-26T12:47:05;2.83;;;1.50;;
14118;SDS011;7138;49.246;9.100;2024-02-26T12:49:32;3.33;;;1.52;;
14118;SDS011;7138;49.246;9.100;2024-02-26T12:51:58;3.03;;;0.80;;
14118;SDS011;7138;49.246;9.100;2024-02-26T12:54:27;1.77;;;0.73;;
14118;SDS011;7138;49.246;9.100;2024-02-26T12:56:54;3.40;;;1.00;;
14118;SDS011;7138;49.246;9.100;2024-02-26T12:59:20;3.35;;;0.90;;
14118;SDS011;7138;49.246;9.100;2024-02-26T13:01:46;2.25;;;0.80;;
14118;SDS011;7138;49.246;9.100;2024-02-26T13:04:12;4.43;;;1.13;;
14118;SDS011;7138;49.246;9.100;2024-02-26T13:06:40;2.08;;;1.02;;
14118;SDS011;7138;49.246;9.100;2024-02-26T13:09:06;2.08;;;0.73;;
14118;SDS011;7138;49.246;9.100;2024-02-26T13:11:34;1.90;;;0.90;;
14118;SDS011;7138;49.246;9.100;2024-02-26T13:14:00;2.00;;;0.90;;
14118;SDS011;7138;49.246;9.100;2024-02-26T13:16:26;2.67;;;0.90;;
14118;SDS011;7138;49.246;9.100;2024-02-26T13:18:52;3.20;;;1.00;;
14118;SDS011;7138;49.246;9.100;2024-02-26T13:21:18;2.78;;;0.90;;
14118;SDS011;7138;49.246;9.100;2024-02-26T13:23:48;2.30;;;0.80;;
14118;SDS011;7138;49.246;9.100;2024-02-26T13:26:17;2.63;;;0.60;;
14118;SDS011;7138;49.246;9.100;2024-02-26T13:28:59;1.73;;;0.60;;
14118;SDS011;7138;49.246;9.100;2024-02-26T13:31:26;1.52;;;0.50;;
14118;SDS011;7138;49.246;9.100;2024-02-26T13:33:52;1.27;;;0.55;;
14118;SDS011;7138;49.246;9.100;2024-02-26T13:36:21;2.13;;;0.77;;
14118;SDS011;7138;49.246;9.100;2024-02-26T13:38:52;6.38;;;1.00;;
14118;SDS011;7138;49.246;9.100;2024-02-26T13:41:19;2.50;;;0.60;;
14118;SDS011;7138;49.246;9.100;2024-02-26T13:43:46;2.88;;;0.70;;
14118;SDS011;7138;49.246;9.100;2024-02-26T13:46:12;2.58;;;0.60;;
14118;SDS011;7138;49.246;9.100;2024-02-26T13:48:40;1.30;;;0.40;;
14118;SDS011;7138;49.246;9.100;2024-02-26T13:51:06;1.90;;;0.60;;
14118;SDS011;7138;49.246;9.100;2024-02-26T13:53:32;3.92;;;0.80;;
14118;SDS011;7138;49.246;9.100;2024-02-26T13:55:59;1.65;;;0.55;;
14118;SDS011;7138;49.246;9.100;2024-02-26T13:58:26;1.98;;;0.60;;
14118;SDS011;7138;49.246;9.100;2024-02-26T14:00:52;1.77;;;0.60;;
14118;SDS011;7138;49.246;9.100;2024-02-26T14:03:18;1.65;;;0.70;;
14118;SDS011;7138;49.246;9.100;2024-02-26T14:05:44;1.80;;;0.60;;
14118;SDS011;7138;49.246;9.100;2024-02-26T14:08:10;3.20;;;0.80;;
14118;SDS011;7138;49.246;9.100;2024-02-26T14:10:36;2.42;;;0.88;;
14118;SDS011;7138;49.246;9.100;2024-02-26T14:13:04;1.58;;;0.60;;
14118;SDS011;7138;49.246;9.100;2024-02-26T14:15:29;1.95;;;0.60;;
14118;SDS011;7138;49.246;9.100;2024-02-26T14:17:55;2.92;;;0.63;;
14118;SDS011;7138;49.246;9.100;2024-02-26T14:20:22;1.70;;;0.50;;
14118;SDS011;7138;49.246;9.100;2024-02-26T14:22:48;2.13;;;0.40;;
14118;SDS011;7138;49.246;9.100;2024-02-26T14:25:14;1.48;;;0.50;;
14118;SDS011;7138;49.246;9.100;2024-02-26T14:27:40;2.55;;;0.55;;
14118;SDS011;7138;49.246;9.100;2024-02-26T14:30:08;1.98;;;0.60;;
14118;SDS011;7138;49.246;9.100;2024-02-26T14:32:34;1.65;;;0.60;;
14118;SDS011;7138;49.246;9.100;2024-02-26T14:35:02;1.33;;;0.43;;
14118;SDS011;7138;49.246;9.100;2024-02-26T14:37:31;0.98;;;0.40;;
14118;SDS011;7138;49.246;9.100;2024-02-26T14:39:57;3.33;;;0.75;;
14118;SDS011;7138;49.246;9.100;2024-02-26T14:42:23;2.28;;;0.60;;
14118;SDS011;7138;49.246;9.100;2024-02-26T14:44:49;1.80;;;0.70;;
14118;SDS011;7138;49.246;9.100;2024-02-26T14:47:17;2.00;;;0.70;;
14118;SDS011;7138;49.246;9.100;2024-02-26T14:49:43;1.83;;;0.70;;
14118;SDS011;7138;49.246;9.100;2024-02-26T14:52:11;2.58;;;0.80;;
14118;SDS011;7138;49.246;9.100;2024-02-26T14:54:36;1.88;;;0.73;;
14118;SDS011;7138;49.246;9.100;2024-02-26T14:57:04;2.80;;;0.88;;
14118;SDS011;7138;49.246;9.100;2024-02-26T14:59:30;2.45;;;0.98;;
14118;SDS011;7138;49.246;9.100;2024-02-26T15:01:56;1.65;;;0.70;;